This is the latest recevied weather packets stored in our database for station/object Winterlng. If no packets are shown the sender has not sent any weather packets the latest 10 day(s).
| Time | Temp. | Humidity | Pressure | Rain* | Wind** | Luminosity | Snow |
|---|---|---|---|---|---|---|---|
| 1778110329 | 6.11° C | 94% | 0 hPa | 4.32 mm | - | - | - |
| 1778108530 | 6.11° C | 93% | 0 hPa | 4.32 mm | - | - | - |
| 1778106730 | 6.11° C | 94% | 0 hPa | 4.32 mm | - | - | - |
| 1778104929 | 6.67° C | 94% | 0 hPa | 0 mm | - | - | - |
| 1778103130 | 6.67° C | 93% | 0 hPa | 4.32 mm | - | - | - |
| 1778101330 | 6.67° C | 92% | 0 hPa | 4.32 mm | - | - | - |
| 1778099531 | 7.22° C | 93% | 0 hPa | 4.32 mm | - | - | - |
| 1778097730 | 7.22° C | 93% | 0 hPa | 4.32 mm | - | - | - |
| 1778095935 | 7.22° C | 92% | 0 hPa | 4.32 mm | - | - | - |
| 1778094131 | 7.78° C | 92% | 0 hPa | 4.32 mm | - | - | - |
| 1778092330 | 8.33° C | 92% | 0 hPa | 4.32 mm | - | - | - |
| 1778090536 | 8.33° C | 92% | 0 hPa | 4.32 mm | - | - | - |
| 1778088730 | 8.33° C | 92% | 0 hPa | 4.32 mm | - | - | - |
| 1778086935 | 8.33° C | 92% | 0 hPa | 4.06 mm | - | - | - |
| 1778085130 | 8.89° C | 92% | 0 hPa | 3.81 mm | - | - | - |
| 1778083330 | 8.89° C | 91% | 0 hPa | 3.56 mm | - | - | - |
| 1778081531 | 9.44° C | 92% | 0 hPa | 3.05 mm | - | - | - |
| 1778079730 | 10° C | 92% | 0 hPa | 1.52 mm | - | - | - |
| 1778077930 | 10° C | 92% | 0 hPa | 1.52 mm | - | - | - |
| 1778076131 | 10.56° C | 91% | 0 hPa | 1.52 mm | - | - | - |
| 1778074331 | 12.22° C | 78% | 0 hPa | 1.52 mm | - | - | - |
| 1778072531 | 13.33° C | 74% | 0 hPa | 1.52 mm | - | - | - |
| 1778070730 | 14.44° C | 68% | 0 hPa | 1.52 mm | - | - | - |
| 1778068930 | 14.44° C | 68% | 0 hPa | 1.52 mm | - | - | - |
| 1778067137 | 14.44° C | 65% | 0 hPa | 1.52 mm | - | - | - |
* Rain since midnight (hover to see other rain measurements)
** Current wind speed in m/s (hover to see current wind gust speed)